createdAt,value
2023-04-23T00:00:23.403Z,15.14
2023-04-23T00:03:10.778Z,15.18
2023-04-23T00:05:57.882Z,15.21
2023-04-23T00:08:44.474Z,15.22
2023-04-23T00:11:30.871Z,15.23
2023-04-23T00:14:18.411Z,15.25
2023-04-23T00:17:04.924Z,15.22
2023-04-23T00:19:51.645Z,15.31
2023-04-23T00:22:37.633Z,15.26
2023-04-23T00:25:23.832Z,15.27
2023-04-23T00:28:16.995Z,15.25
2023-04-23T00:31:11.207Z,15.23
2023-04-23T00:34:04.103Z,15.03
2023-04-23T00:36:56.482Z,14.92
2023-04-23T00:43:02.552Z,14.81
2023-04-23T00:49:13.173Z,14.65
2023-04-23T00:52:06.910Z,14.39
2023-04-23T00:58:08.681Z,14.26
2023-04-23T01:04:15.846Z,14.17
2023-04-23T01:10:22.302Z,14.03
2023-04-23T01:16:28.946Z,14.02
2023-04-23T01:19:22.668Z,13.96
2023-04-23T01:22:22.720Z,13.90
2023-04-23T01:25:15.522Z,13.94
2023-04-23T01:28:09.005Z,13.94
2023-04-23T01:31:01.879Z,13.99
2023-04-23T01:33:56.627Z,13.95
2023-04-23T01:36:49.988Z,13.90
2023-04-23T01:42:54.616Z,13.94
2023-04-23T01:45:47.673Z,13.95
2023-04-23T01:48:40.563Z,13.93
2023-04-23T01:51:34.129Z,13.92
2023-04-23T01:54:26.888Z,13.92
2023-04-23T01:57:23.881Z,13.94
2023-04-23T02:00:18.842Z,13.99
2023-04-23T02:03:11.640Z,13.99
2023-04-23T02:06:29.806Z,13.96
2023-04-23T02:09:22.372Z,13.96
2023-04-23T02:12:14.753Z,13.98
2023-04-23T02:15:09.116Z,13.96
2023-04-23T02:17:56.678Z,13.85
2023-04-23T02:20:50.092Z,13.99
2023-04-23T02:23:42.526Z,13.89
2023-04-23T02:26:35.761Z,13.85
2023-04-23T02:29:28.519Z,13.76
2023-04-23T02:35:35.890Z,13.78
2023-04-23T02:38:28.810Z,13.56
2023-04-23T02:44:50.478Z,13.47
2023-04-23T02:47:42.627Z,13.56
2023-04-23T02:54:23.838Z,13.54
2023-04-23T02:57:17.811Z,13.32
2023-04-23T03:00:12.482Z,13.35
2023-04-23T03:03:08.724Z,13.32
2023-04-23T03:06:03.732Z,13.27
2023-04-23T03:08:56.842Z,13.29
2023-04-23T03:11:50.905Z,13.31
2023-04-23T03:14:43.602Z,13.34
2023-04-23T03:20:50.062Z,13.29
2023-04-23T03:23:43.492Z,13.26
2023-04-23T03:26:42.153Z,13.22
2023-04-23T03:29:36.151Z,13.18
2023-04-23T03:32:28.483Z,13.12
2023-04-23T03:35:21.792Z,13.12
2023-04-23T03:38:15.680Z,13.11
2023-04-23T03:41:08.324Z,13.09
2023-04-23T03:44:00.597Z,13.02
2023-04-23T03:47:14.192Z,12.98
2023-04-23T03:50:08.103Z,12.91
2023-04-23T03:53:01.409Z,12.93
2023-04-23T03:56:13.480Z,12.91
2023-04-23T03:59:14.655Z,12.88
2023-04-23T04:02:07.765Z,12.89
2023-04-23T04:05:28.930Z,12.80
2023-04-23T04:08:23.396Z,12.77
2023-04-23T04:11:17.221Z,12.80
2023-04-23T04:14:09.485Z,12.82
2023-04-23T04:16:56.864Z,12.81
2023-04-23T04:19:49.882Z,12.78
2023-04-23T04:22:42.567Z,12.80
2023-04-23T04:25:39.808Z,12.85
2023-04-23T04:28:36.080Z,12.85
2023-04-23T04:31:29.021Z,12.87
2023-04-23T04:37:50.684Z,12.79
2023-04-23T04:40:45.525Z,12.81
2023-04-23T04:43:38.379Z,12.81
2023-04-23T04:46:31.854Z,12.80
2023-04-23T04:52:36.273Z,12.76
2023-04-23T04:55:28.283Z,12.74
2023-04-23T04:58:22.392Z,12.88
2023-04-23T05:01:15.022Z,12.92
2023-04-23T05:04:08.296Z,12.84
2023-04-23T05:07:00.569Z,12.97
2023-04-23T05:09:53.698Z,13.03
2023-04-23T05:12:46.598Z,13.10
2023-04-23T05:15:40.896Z,13.06
2023-04-23T05:18:33.414Z,12.90
2023-04-23T05:21:27.323Z,12.99
2023-04-23T05:24:20.422Z,13.08
2023-04-23T05:27:13.965Z,13.03
2023-04-23T05:30:09.289Z,13.19
2023-04-23T05:33:04.739Z,13.42
2023-04-23T05:35:57.786Z,13.22
2023-04-23T05:38:50.488Z,13.39
2023-04-23T05:41:42.598Z,13.58
2023-04-23T05:44:35.606Z,13.68
2023-04-23T05:48:05.856Z,13.87
2023-04-23T05:50:59.805Z,13.92
2023-04-23T05:54:09.001Z,13.90
2023-04-23T05:56:59.603Z,13.83
2023-04-23T05:59:52.455Z,13.85
2023-04-23T06:02:44.575Z,14.04
2023-04-23T06:05:38.119Z,14.25
2023-04-23T06:08:31.726Z,14.33
2023-04-23T06:11:24.269Z,14.60
2023-04-23T06:14:16.474Z,14.88
2023-04-23T06:17:08.519Z,15.21
2023-04-23T06:23:14.082Z,16.16
2023-04-23T06:26:08.210Z,17.96
2023-04-23T06:29:00.662Z,19.99
2023-04-23T06:32:02.678Z,21.97
2023-04-23T06:35:01.332Z,23.30
2023-04-23T06:37:54.562Z,23.88
2023-04-23T06:40:47.694Z,24.51
2023-04-23T06:44:04.624Z,24.28
2023-04-23T06:47:02.823Z,25.02
2023-04-23T06:49:55.409Z,24.73
2023-04-23T06:52:49.678Z,25.39
2023-04-23T06:55:49.749Z,24.76
2023-04-23T06:58:42.776Z,25.63
2023-04-23T07:01:43.442Z,26.05
2023-04-23T07:04:37.038Z,26.56
2023-04-23T07:07:29.619Z,25.99
2023-04-23T07:10:22.930Z,26.38
2023-04-23T07:13:20.479Z,25.57
2023-04-23T07:16:12.427Z,25.96
2023-04-23T07:22:52.665Z,27.24
2023-04-23T07:25:45.617Z,27.12
2023-04-23T07:28:38.939Z,27.48
2023-04-23T07:31:31.567Z,27.68
2023-04-23T07:34:24.514Z,27.93
2023-04-23T07:40:34.372Z,27.07
2023-04-23T07:43:26.679Z,27.61
2023-04-23T07:46:20.002Z,28.80
2023-04-23T07:52:23.338Z,29.73
2023-04-23T07:58:24.135Z,30.23
2023-04-23T08:01:16.648Z,30.86
2023-04-23T08:04:09.655Z,30.95
2023-04-23T08:07:02.804Z,31.18
2023-04-23T08:09:55.314Z,31.15
2023-04-23T08:12:47.750Z,31.34
2023-04-23T08:15:42.185Z,30.58
2023-04-23T08:18:35.187Z,29.95
2023-04-23T08:21:28.863Z,29.59
2023-04-23T08:27:42.937Z,29.17
2023-04-23T08:30:35.523Z,29.48
2023-04-23T08:33:29.102Z,28.97
2023-04-23T08:36:21.504Z,29.23
2023-04-23T08:39:13.789Z,27.85
2023-04-23T08:42:12.221Z,28.03
2023-04-23T08:48:39.647Z,28.43
2023-04-23T08:51:32.706Z,27.63
2023-04-23T08:57:44.376Z,27.27
2023-04-23T09:00:36.658Z,27.28
2023-04-23T09:06:43.690Z,26.91
2023-04-23T09:12:49.034Z,27.16
2023-04-23T09:15:43.462Z,27.37
2023-04-23T09:21:49.295Z,27.60
2023-04-23T09:24:43.313Z,27.97
2023-04-23T09:30:52.204Z,28.15
2023-04-23T09:36:58.340Z,27.47
2023-04-23T09:39:53.403Z,27.14
2023-04-23T09:42:48.383Z,27.13
2023-04-23T09:45:48.994Z,27.21
2023-04-23T09:48:42.531Z,27.28
2023-04-23T09:51:28.923Z,27.42
2023-04-23T09:54:18.557Z,26.66
2023-04-23T09:57:12.278Z,26.26
2023-04-23T10:00:15.355Z,26.20
2023-04-23T10:03:09.999Z,26.30
2023-04-23T10:06:03.170Z,26.13
2023-04-23T10:12:36.891Z,26.60
2023-04-23T10:15:31.133Z,25.42
2023-04-23T10:21:46.692Z,26.32
2023-04-23T10:27:59.211Z,24.73
2023-04-23T10:30:52.041Z,24.87
2023-04-23T10:33:49.292Z,25.09
2023-04-23T10:36:41.826Z,25.78
2023-04-23T10:39:30.037Z,26.71
2023-04-23T10:42:16.721Z,27.52
2023-04-23T10:45:31.230Z,26.90
2023-04-23T10:48:17.355Z,26.46
2023-04-23T10:51:28.399Z,25.84
2023-04-23T10:57:21.981Z,24.45
2023-04-23T11:03:42.625Z,26.38
2023-04-23T11:09:47.702Z,26.25
2023-04-23T11:16:15.659Z,25.09
2023-04-23T11:22:24.835Z,23.43
2023-04-23T11:25:20.836Z,22.66
2023-04-23T11:28:13.951Z,21.86
2023-04-23T11:31:07.030Z,21.10
2023-04-23T11:33:59.373Z,21.24
2023-04-23T11:36:53.303Z,21.59
2023-04-23T11:39:49.138Z,22.39
2023-04-23T11:42:43.412Z,22.82
2023-04-23T11:45:36.041Z,23.27
2023-04-23T11:48:28.773Z,24.03
2023-04-23T11:51:26.396Z,24.62
2023-04-23T11:54:20.195Z,25.34
2023-04-23T11:57:14.482Z,25.52
2023-04-23T12:00:14.806Z,25.32
2023-04-23T12:06:20.604Z,24.89
2023-04-23T12:09:14.607Z,24.81
2023-04-23T12:12:07.645Z,24.86
2023-04-23T12:15:06.477Z,24.50
2023-04-23T12:18:09.883Z,24.73
2023-04-23T12:21:06.139Z,24.97
2023-04-23T12:23:59.019Z,24.86
2023-04-23T12:26:54.350Z,24.94
2023-04-23T12:29:47.764Z,24.86
2023-04-23T12:36:02.309Z,25.69
2023-04-23T12:38:54.938Z,25.17
2023-04-23T12:41:47.393Z,25.09
2023-04-23T12:44:39.765Z,24.21
2023-04-23T12:47:32.727Z,24.80
2023-04-23T12:50:25.708Z,25.28
2023-04-23T12:53:20.499Z,25.61
2023-04-23T12:56:12.924Z,26.08
2023-04-23T12:59:37.607Z,26.59
2023-04-23T13:02:30.208Z,26.64
2023-04-23T13:05:36.842Z,27.31
2023-04-23T13:08:31.176Z,27.92
2023-04-23T13:11:24.094Z,27.65
2023-04-23T13:14:16.806Z,26.98
2023-04-23T13:17:09.910Z,26.83
2023-04-23T13:20:02.657Z,26.36
2023-04-23T13:26:16.010Z,25.89
2023-04-23T13:32:55.573Z,25.69
2023-04-23T13:36:05.176Z,25.97
2023-04-23T13:38:54.655Z,25.84
2023-04-23T13:41:59.106Z,25.88
2023-04-23T13:48:34.621Z,25.62
2023-04-23T13:52:04.033Z,25.99
2023-04-23T13:54:57.773Z,25.84
2023-04-23T13:57:52.150Z,25.48
2023-04-23T14:00:45.015Z,25.68
2023-04-23T14:03:37.909Z,26.02
2023-04-23T14:06:30.697Z,26.80
2023-04-23T14:09:52.560Z,27.10
2023-04-23T14:12:45.486Z,26.98
2023-04-23T14:15:52.894Z,26.10
2023-04-23T14:18:46.354Z,25.53
2023-04-23T14:25:03.528Z,24.31
2023-04-23T14:31:01.928Z,23.91
2023-04-23T14:33:58.684Z,23.66
2023-04-23T14:36:53.267Z,23.57
2023-04-23T14:39:46.577Z,23.69
2023-04-23T14:42:38.861Z,23.73
2023-04-23T14:45:32.780Z,23.78
2023-04-23T14:48:37.070Z,23.75
2023-04-23T14:51:31.460Z,23.76
2023-04-23T14:54:23.836Z,23.42
2023-04-23T14:57:16.588Z,23.28
2023-04-23T15:00:12.949Z,23.48
2023-04-23T15:03:10.378Z,23.88
2023-04-23T15:06:02.930Z,24.19
2023-04-23T15:08:57.178Z,24.64
2023-04-23T15:11:50.000Z,25.37
2023-04-23T15:14:48.827Z,26.19
2023-04-23T15:17:41.946Z,26.87
2023-04-23T15:20:50.886Z,27.30
2023-04-23T15:23:42.141Z,27.23
2023-04-23T15:26:36.233Z,26.26
2023-04-23T15:32:39.634Z,23.20
2023-04-23T15:38:49.221Z,19.76
2023-04-23T15:44:59.487Z,17.79
2023-04-23T15:47:52.200Z,17.54
2023-04-23T15:50:44.634Z,17.46
2023-04-23T15:53:35.575Z,17.59
2023-04-23T15:56:27.714Z,17.79
2023-04-23T15:59:21.006Z,18.02
2023-04-23T16:02:15.260Z,18.27
2023-04-23T16:05:08.392Z,18.30
2023-04-23T16:08:00.664Z,18.28
2023-04-23T16:10:54.809Z,18.24
2023-04-23T16:13:47.761Z,18.34
2023-04-23T16:16:40.786Z,18.51
2023-04-23T16:19:35.008Z,18.67
2023-04-23T16:22:27.852Z,18.82
2023-04-23T16:25:20.704Z,18.93
2023-04-23T16:28:13.944Z,19.02
2023-04-23T16:31:06.860Z,18.98
2023-04-23T16:34:00.350Z,19.02
2023-04-23T16:36:54.339Z,18.98
2023-04-23T16:39:46.621Z,18.78
2023-04-23T16:42:34.037Z,18.52
2023-04-23T16:45:26.914Z,18.43
2023-04-23T16:48:20.074Z,18.41
2023-04-23T16:51:13.282Z,18.36
2023-04-23T16:54:08.425Z,18.27
2023-04-23T16:57:01.964Z,18.14
2023-04-23T16:59:54.986Z,18.13
2023-04-23T17:02:48.044Z,18.08
2023-04-23T17:05:40.861Z,18.01
2023-04-23T17:08:33.801Z,17.99
2023-04-23T17:12:04.010Z,18.02
2023-04-23T17:14:58.286Z,17.98
2023-04-23T17:18:06.439Z,17.96
2023-04-23T17:20:58.154Z,17.93
2023-04-23T17:27:12.096Z,17.92
2023-04-23T17:30:07.911Z,17.76
2023-04-23T17:33:01.257Z,17.76
2023-04-23T17:35:55.174Z,17.72
2023-04-23T17:38:47.720Z,17.40
2023-04-23T17:41:40.937Z,16.99
2023-04-23T17:44:34.934Z,16.86
2023-04-23T17:47:28.890Z,16.71
2023-04-23T17:50:22.562Z,16.66
2023-04-23T17:53:14.829Z,16.55
2023-04-23T17:56:07.875Z,16.48
2023-04-23T17:59:01.337Z,16.27
2023-04-23T18:01:53.979Z,16.30
2023-04-23T18:04:48.460Z,16.34
2023-04-23T18:07:42.136Z,16.38
2023-04-23T18:10:34.602Z,16.34
2023-04-23T18:13:26.535Z,16.39
2023-04-23T18:16:18.801Z,16.33
2023-04-23T18:19:11.660Z,16.24
2023-04-23T18:22:04.809Z,16.27
2023-04-23T18:24:57.862Z,16.29
2023-04-23T18:27:50.982Z,16.26
2023-04-23T18:30:44.037Z,16.23
2023-04-23T18:33:38.825Z,16.24
2023-04-23T18:36:33.325Z,16.23
2023-04-23T18:39:29.054Z,16.17
2023-04-23T18:42:24.805Z,16.12
2023-04-23T18:45:18.045Z,16.07
2023-04-23T18:48:44.590Z,16.04
2023-04-23T18:51:39.069Z,16.00
2023-04-23T18:54:32.916Z,16.03
2023-04-23T19:00:38.096Z,15.97
2023-04-23T19:03:31.096Z,15.98
2023-04-23T19:06:24.112Z,15.90
2023-04-23T19:09:16.861Z,15.92
2023-04-23T19:12:11.291Z,15.91
2023-04-23T19:15:28.720Z,15.82
2023-04-23T19:18:22.579Z,15.27
2023-04-23T19:21:15.114Z,14.96
2023-04-23T19:24:09.536Z,14.60
2023-04-23T19:27:02.936Z,14.36
2023-04-23T19:29:57.184Z,14.44
2023-04-23T19:32:50.112Z,14.43
2023-04-23T19:35:46.787Z,14.26
2023-04-23T19:38:39.585Z,14.26
2023-04-23T19:45:19.246Z,14.16
2023-04-23T19:48:12.068Z,14.12
2023-04-23T19:51:04.741Z,14.08
2023-04-23T19:53:58.170Z,14.02
2023-04-23T19:56:50.548Z,14.05
2023-04-23T19:59:43.041Z,14.17
2023-04-23T20:02:37.428Z,14.10
2023-04-23T20:05:29.751Z,14.10
2023-04-23T20:08:41.306Z,14.10
2023-04-23T20:14:55.653Z,14.01
2023-04-23T20:21:10.739Z,14.07
2023-04-23T20:24:03.998Z,14.04
2023-04-23T20:26:58.485Z,13.99
2023-04-23T20:29:51.466Z,13.94
2023-04-23T20:32:43.844Z,13.97
2023-04-23T20:39:00.176Z,13.95
2023-04-23T20:41:54.718Z,13.90
2023-04-23T20:44:48.793Z,13.89
2023-04-23T20:47:44.275Z,13.79
2023-04-23T20:50:37.020Z,13.80
2023-04-23T20:53:30.226Z,13.85
2023-04-23T20:57:00.047Z,13.82
2023-04-23T20:59:54.103Z,13.77
2023-04-23T21:02:47.129Z,13.69
2023-04-23T21:09:00.378Z,13.52
2023-04-23T21:11:52.562Z,13.41
2023-04-23T21:14:44.922Z,13.28
2023-04-23T21:17:39.483Z,13.35
2023-04-23T21:20:32.193Z,13.44
2023-04-23T21:23:25.058Z,13.43
2023-04-23T21:29:54.205Z,13.35
2023-04-23T21:32:48.345Z,13.35
2023-04-23T21:35:40.586Z,13.40
2023-04-23T21:38:34.158Z,13.38
2023-04-23T21:41:27.421Z,13.36
2023-04-23T21:44:20.700Z,13.30
2023-04-23T21:51:02.154Z,13.44
2023-04-23T21:54:26.497Z,13.51
2023-04-23T21:57:18.839Z,13.59
2023-04-23T22:00:13.973Z,13.61
2023-04-23T22:03:09.916Z,13.69
2023-04-23T22:06:04.914Z,13.62
2023-04-23T22:08:57.974Z,13.71
2023-04-23T22:15:06.562Z,13.61
2023-04-23T22:18:02.303Z,13.57
2023-04-23T22:20:57.730Z,13.39
2023-04-23T22:27:05.701Z,13.26
2023-04-23T22:30:00.388Z,13.24
2023-04-23T22:32:54.929Z,13.19
2023-04-23T22:35:49.750Z,13.26
2023-04-23T22:38:43.143Z,13.16
2023-04-23T22:41:38.644Z,13.09
2023-04-23T22:44:33.356Z,13.01
2023-04-23T22:47:28.392Z,12.94
2023-04-23T22:50:24.810Z,12.79
2023-04-23T22:53:19.030Z,13.11
2023-04-23T22:56:12.493Z,13.05
2023-04-23T22:59:05.879Z,12.93
2023-04-23T23:02:03.124Z,12.91
2023-04-23T23:04:55.984Z,12.89
2023-04-23T23:07:51.812Z,12.83
2023-04-23T23:10:47.522Z,12.94
2023-04-23T23:13:40.544Z,13.16
2023-04-23T23:16:32.761Z,13.28
2023-04-23T23:19:27.963Z,13.24
2023-04-23T23:22:20.883Z,13.25
2023-04-23T23:25:17.693Z,13.22
2023-04-23T23:28:11.130Z,12.91
2023-04-23T23:31:03.898Z,13.16
2023-04-23T23:33:57.051Z,13.09
2023-04-23T23:36:45.278Z,12.83
2023-04-23T23:39:31.110Z,12.91
2023-04-23T23:42:16.928Z,12.73
2023-04-23T23:45:04.036Z,12.58
2023-04-23T23:47:50.237Z,12.58
2023-04-23T23:50:36.410Z,12.60
2023-04-23T23:56:36.470Z,12.47
2023-04-23T23:59:22.776Z,12.32
